sensor_id;sensor_type;location;lat;lon;timestamp;pressure;altitude;pressure_sealevel;temperature;humidity
29549;BME280;16487;53.094;8.800;2023-03-19T00:00:42;99931.84;;;10.49;100.00
29549;BME280;16487;53.094;8.800;2023-03-19T00:03:10;99954.13;;;10.49;100.00
29549;BME280;16487;53.094;8.800;2023-03-19T00:05:37;99979.81;;;10.44;100.00
29549;BME280;16487;53.094;8.800;2023-03-19T00:08:06;99990.63;;;10.42;100.00
29549;BME280;16487;53.094;8.800;2023-03-19T00:10:36;100006.41;;;10.45;100.00
29549;BME280;16487;53.094;8.800;2023-03-19T00:13:04;100022.16;;;10.39;100.00
29549;BME280;16487;53.094;8.800;2023-03-19T00:15:31;100033.31;;;10.39;100.00
29549;BME280;16487;53.094;8.800;2023-03-19T00:17:59;100049.44;;;10.44;100.00
29549;BME280;16487;53.094;8.800;2023-03-19T00:20:26;100063.66;;;10.37;100.00
29549;BME280;16487;53.094;8.800;2023-03-19T00:22:53;100077.88;;;10.39;100.00
29549;BME280;16487;53.094;8.800;2023-03-19T00:25:22;100086.06;;;10.33;100.00
29549;BME280;16487;53.094;8.800;2023-03-19T00:27:50;100093.00;;;10.29;100.00
29549;BME280;16487;53.094;8.800;2023-03-19T00:30:17;100103.53;;;10.34;100.00
29549;BME280;16487;53.094;8.800;2023-03-19T00:32:44;100122.09;;;10.28;100.00
29549;BME280;16487;53.094;8.800;2023-03-19T00:35:12;100130.91;;;10.26;100.00
29549;BME280;16487;53.094;8.800;2023-03-19T00:37:40;100140.59;;;10.22;100.00
29549;BME280;16487;53.094;8.800;2023-03-19T00:40:09;100155.00;;;10.20;100.00
29549;BME280;16487;53.094;8.800;2023-03-19T00:42:38;100173.56;;;10.23;100.00
29549;BME280;16487;53.094;8.800;2023-03-19T00:45:06;100185.16;;;10.22;100.00
29549;BME280;16487;53.094;8.800;2023-03-19T00:47:34;100176.47;;;10.20;100.00
29549;BME280;16487;53.094;8.800;2023-03-19T00:50:01;100198.72;;;10.11;100.00
29549;BME280;16487;53.094;8.800;2023-03-19T00:52:29;100201.50;;;10.11;100.00
29549;BME280;16487;53.094;8.800;2023-03-19T00:54:56;100209.53;;;10.09;100.00
29549;BME280;16487;53.094;8.800;2023-03-19T00:57:23;100228.56;;;10.10;100.00
29549;BME280;16487;53.094;8.800;2023-03-19T00:59:52;100234.22;;;10.07;100.00
29549;BME280;16487;53.094;8.800;2023-03-19T01:02:19;100241.78;;;10.06;100.00
29549;BME280;16487;53.094;8.800;2023-03-19T01:04:47;100241.78;;;10.06;100.00
29549;BME280;16487;53.094;8.800;2023-03-19T01:07:14;100257.19;;;10.11;100.00
29549;BME280;16487;53.094;8.800;2023-03-19T01:09:42;100250.72;;;10.14;100.00
29549;BME280;16487;53.094;8.800;2023-03-19T01:12:09;100266.09;;;10.06;100.00
29549;BME280;16487;53.094;8.800;2023-03-19T01:14:36;100260.53;;;10.06;100.00
29549;BME280;16487;53.094;8.800;2023-03-19T01:17:05;100258.41;;;10.10;100.00
29549;BME280;16487;53.094;8.800;2023-03-19T01:19:32;100264.19;;;10.03;100.00
29549;BME280;16487;53.094;8.800;2023-03-19T01:22:00;100271.31;;;10.04;100.00
29549;BME280;16487;53.094;8.800;2023-03-19T01:24:28;100266.97;;;10.03;100.00
29549;BME280;16487;53.094;8.800;2023-03-19T01:26:56;100269.19;;;10.08;100.00
29549;BME280;16487;53.094;8.800;2023-03-19T01:29:29;100266.38;;;10.08;100.00
29549;BME280;16487;53.094;8.800;2023-03-19T01:32:01;100266.19;;;10.15;100.00
29549;BME280;16487;53.094;8.800;2023-03-19T01:34:29;100255.38;;;10.17;100.00
29549;BME280;16487;53.094;8.800;2023-03-19T01:37:05;100249.53;;;10.24;100.00
29549;BME280;16487;53.094;8.800;2023-03-19T01:39:33;100241.06;;;10.27;100.00
29549;BME280;16487;53.094;8.800;2023-03-19T01:42:04;100243.72;;;10.31;100.00
29549;BME280;16487;53.094;8.800;2023-03-19T01:44:50;100233.56;;;10.37;100.00
29549;BME280;16487;53.094;8.800;2023-03-19T01:47:31;100230.44;;;10.35;100.00
29549;BME280;16487;53.094;8.800;2023-03-19T01:50:26;100215.59;;;10.38;100.00
29549;BME280;16487;53.094;8.800;2023-03-19T01:53:17;100223.31;;;10.34;100.00
29549;BME280;16487;53.094;8.800;2023-03-19T01:55:49;100226.63;;;10.42;100.00
29549;BME280;16487;53.094;8.800;2023-03-19T01:58:33;100210.69;;;10.42;100.00
29549;BME280;16487;53.094;8.800;2023-03-19T02:01:34;100210.22;;;10.44;100.00
29549;BME280;16487;53.094;8.800;2023-03-19T02:04:04;100212.50;;;10.36;100.00
29549;BME280;16487;53.094;8.800;2023-03-19T02:06:36;100212.81;;;10.38;100.00
29549;BME280;16487;53.094;8.800;2023-03-19T02:09:04;100215.75;;;10.34;100.00
29549;BME280;16487;53.094;8.800;2023-03-19T02:11:31;100212.03;;;10.37;100.00
29549;BME280;16487;53.094;8.800;2023-03-19T02:13:59;100215.75;;;10.34;100.00
29549;BME280;16487;53.094;8.800;2023-03-19T02:16:26;100223.88;;;10.29;100.00
29549;BME280;16487;53.094;8.800;2023-03-19T02:18:55;100219.91;;;10.30;100.00
29549;BME280;16487;53.094;8.800;2023-03-19T02:21:22;100227.25;;;10.24;100.00
29549;BME280;16487;53.094;8.800;2023-03-19T02:23:56;100225.06;;;10.19;100.00
29549;BME280;16487;53.094;8.800;2023-03-19T02:27:01;100226.59;;;10.20;100.00
29549;BME280;16487;53.094;8.800;2023-03-19T02:29:29;100236.06;;;10.22;100.00
29549;BME280;16487;53.094;8.800;2023-03-19T02:31:58;100243.78;;;10.18;100.00
29549;BME280;16487;53.094;8.800;2023-03-19T02:34:34;100237.75;;;10.20;100.00
29549;BME280;16487;53.094;8.800;2023-03-19T02:37:06;100243.56;;;10.13;100.00
29549;BME280;16487;53.094;8.800;2023-03-19T02:39:39;100247.59;;;10.12;100.00
29549;BME280;16487;53.094;8.800;2023-03-19T02:42:11;100246.34;;;10.13;100.00
29549;BME280;16487;53.094;8.800;2023-03-19T02:44:40;100257.19;;;10.11;100.00
29549;BME280;16487;53.094;8.800;2023-03-19T02:47:07;100261.19;;;10.10;100.00
29549;BME280;16487;53.094;8.800;2023-03-19T02:49:34;100261.06;;;10.13;100.00
29549;BME280;16487;53.094;8.800;2023-03-19T02:52:02;100278.69;;;10.10;100.00
29549;BME280;16487;53.094;8.800;2023-03-19T02:54:30;100292.03;;;10.03;100.00
29549;BME280;16487;53.094;8.800;2023-03-19T02:56:57;100297.94;;;10.05;100.00
29549;BME280;16487;53.094;8.800;2023-03-19T02:59:26;100301.16;;;10.03;100.00
29549;BME280;16487;53.094;8.800;2023-03-19T03:01:53;100299.16;;;10.04;100.00
29549;BME280;16487;53.094;8.800;2023-03-19T03:04:21;100297.25;;;10.01;100.00
29549;BME280;16487;53.094;8.800;2023-03-19T03:06:48;100304.41;;;10.02;100.00
29549;BME280;16487;53.094;8.800;2023-03-19T03:09:15;100316.44;;;9.99;100.00
29549;BME280;16487;53.094;8.800;2023-03-19T03:11:43;100323.44;;;10.03;100.00
29549;BME280;16487;53.094;8.800;2023-03-19T03:14:11;100320.19;;;10.05;100.00
29549;BME280;16487;53.094;8.800;2023-03-19T03:16:41;100328.22;;;10.03;100.00
29549;BME280;16487;53.094;8.800;2023-03-19T03:19:08;100334.56;;;10.03;100.00
29549;BME280;16487;53.094;8.800;2023-03-19T03:21:36;100342.47;;;10.05;100.00
29549;BME280;16487;53.094;8.800;2023-03-19T03:24:03;100347.38;;;10.01;100.00
29549;BME280;16487;53.094;8.800;2023-03-19T03:26:31;100348.28;;;9.98;100.00
29549;BME280;16487;53.094;8.800;2023-03-19T03:28:58;100355.94;;;10.06;100.00
29549;BME280;16487;53.094;8.800;2023-03-19T03:31:26;100360.41;;;10.04;100.00
29549;BME280;16487;53.094;8.800;2023-03-19T03:33:54;100367.44;;;9.96;100.00
29549;BME280;16487;53.094;8.800;2023-03-19T03:36:22;100376.13;;;9.98;100.00
29549;BME280;16487;53.094;8.800;2023-03-19T03:38:49;100382.00;;;10.00;100.00
29549;BME280;16487;53.094;8.800;2023-03-19T03:41:16;100372.25;;;9.95;100.00
29549;BME280;16487;53.094;8.800;2023-03-19T03:43:44;100381.69;;;9.98;100.00
29549;BME280;16487;53.094;8.800;2023-03-19T03:46:11;100392.47;;;9.96;100.00
29549;BME280;16487;53.094;8.800;2023-03-19T03:48:39;100396.16;;;9.93;100.00
29549;BME280;16487;53.094;8.800;2023-03-19T03:51:07;100398.94;;;9.93;100.00
29549;BME280;16487;53.094;8.800;2023-03-19T03:53:35;100397.75;;;9.94;100.00
29549;BME280;16487;53.094;8.800;2023-03-19T03:56:04;100407.63;;;9.95;100.00
29549;BME280;16487;53.094;8.800;2023-03-19T03:58:32;100409.53;;;9.98;100.00
29549;BME280;16487;53.094;8.800;2023-03-19T04:00:59;100415.31;;;9.91;100.00
29549;BME280;16487;53.094;8.800;2023-03-19T04:03:26;100424.91;;;9.90;100.00
29549;BME280;16487;53.094;8.800;2023-03-19T04:05:54;100414.56;;;9.90;100.00
29549;BME280;16487;53.094;8.800;2023-03-19T04:08:23;100416.88;;;9.92;100.00
29549;BME280;16487;53.094;8.800;2023-03-19T04:10:50;100416.88;;;9.92;100.00
29549;BME280;16487;53.094;8.800;2023-03-19T04:13:17;100416.09;;;9.91;100.00
29549;BME280;16487;53.094;8.800;2023-03-19T04:15:45;100424.69;;;9.97;100.00
29549;BME280;16487;53.094;8.800;2023-03-19T04:18:13;100424.34;;;9.95;100.00
29549;BME280;16487;53.094;8.800;2023-03-19T04:20:40;100424.34;;;9.95;100.00
29549;BME280;16487;53.094;8.800;2023-03-19T04:23:08;100429.56;;;9.93;100.00
29549;BME280;16487;53.094;8.800;2023-03-19T04:25:39;100435.94;;;9.93;100.00
29549;BME280;16487;53.094;8.800;2023-03-19T04:28:06;100435.94;;;9.93;100.00
29549;BME280;16487;53.094;8.800;2023-03-19T04:30:33;100432.91;;;9.88;100.00
29549;BME280;16487;53.094;8.800;2023-03-19T04:33:02;100439.16;;;9.92;100.00
29549;BME280;16487;53.094;8.800;2023-03-19T04:35:30;100444.28;;;9.93;100.00
29549;BME280;16487;53.094;8.800;2023-03-19T04:37:58;100443.81;;;9.95;100.00
29549;BME280;16487;53.094;8.800;2023-03-19T04:40:25;100441.25;;;10.00;100.00
29549;BME280;16487;53.094;8.800;2023-03-19T04:42:54;100444.50;;;9.99;100.00
29549;BME280;16487;53.094;8.800;2023-03-19T04:45:30;100447.59;;;10.01;100.00
29549;BME280;16487;53.094;8.800;2023-03-19T04:47:58;100447.28;;;9.99;100.00
29549;BME280;16487;53.094;8.800;2023-03-19T04:50:26;100453.94;;;10.01;100.00
29549;BME280;16487;53.094;8.800;2023-03-19T04:52:53;100454.41;;;10.00;100.00
29549;BME280;16487;53.094;8.800;2023-03-19T04:55:21;100461.50;;;10.01;100.00
29549;BME280;16487;53.094;8.800;2023-03-19T04:58:04;100458.09;;;9.97;100.00
29549;BME280;16487;53.094;8.800;2023-03-19T05:00:33;100465.19;;;9.98;100.00
29549;BME280;16487;53.094;8.800;2023-03-19T05:03:01;100468.88;;;9.95;100.00
29549;BME280;16487;53.094;8.800;2023-03-19T05:05:30;100476.44;;;9.94;100.00
29549;BME280;16487;53.094;8.800;2023-03-19T05:07:58;100483.00;;;9.88;100.00
29549;BME280;16487;53.094;8.800;2023-03-19T05:10:27;100506.72;;;9.80;100.00
29549;BME280;16487;53.094;8.800;2023-03-19T05:12:54;100520.66;;;9.80;100.00
29549;BME280;16487;53.094;8.800;2023-03-19T05:15:23;100538.91;;;9.81;100.00
29549;BME280;16487;53.094;8.800;2023-03-19T05:17:59;100537.00;;;9.78;100.00
29549;BME280;16487;53.094;8.800;2023-03-19T05:20:36;100538.00;;;9.84;100.00
29549;BME280;16487;53.094;8.800;2023-03-19T05:23:07;100557.28;;;9.78;100.00
29549;BME280;16487;53.094;8.800;2023-03-19T05:25:41;100565.38;;;9.73;100.00
29549;BME280;16487;53.094;8.800;2023-03-19T05:28:11;100580.94;;;9.70;100.00
29549;BME280;16487;53.094;8.800;2023-03-19T05:30:40;100596.53;;;9.68;100.00
29549;BME280;16487;53.094;8.800;2023-03-19T05:33:18;100620.00;;;9.67;100.00
29549;BME280;16487;53.094;8.800;2023-03-19T05:35:46;100636.34;;;9.65;100.00
29549;BME280;16487;53.094;8.800;2023-03-19T05:38:20;100630.69;;;9.68;100.00
29549;BME280;16487;53.094;8.800;2023-03-19T05:40:54;100670.53;;;9.65;100.00
29549;BME280;16487;53.094;8.800;2023-03-19T05:43:34;100696.09;;;9.60;100.00
29549;BME280;16487;53.094;8.800;2023-03-19T05:46:06;100713.78;;;9.54;100.00
29549;BME280;16487;53.094;8.800;2023-03-19T05:48:34;100743.25;;;9.51;100.00
29549;BME280;16487;53.094;8.800;2023-03-19T05:51:03;100769.06;;;9.52;100.00
29549;BME280;16487;53.094;8.800;2023-03-19T05:53:35;100799.75;;;9.48;100.00
29549;BME280;16487;53.094;8.800;2023-03-19T05:56:35;100832.00;;;9.46;100.00
29549;BME280;16487;53.094;8.800;2023-03-19T05:59:37;100842.44;;;9.42;100.00
29549;BME280;16487;53.094;8.800;2023-03-19T06:02:36;100860.31;;;9.41;100.00
29549;BME280;16487;53.094;8.800;2023-03-19T06:05:35;100872.25;;;9.41;100.00
29549;BME280;16487;53.094;8.800;2023-03-19T06:08:21;100891.28;;;9.43;100.00
29549;BME280;16487;53.094;8.800;2023-03-19T06:11:04;100909.81;;;9.49;100.00
29549;BME280;16487;53.094;8.800;2023-03-19T06:13:32;100938.41;;;9.50;100.00
29549;BME280;16487;53.094;8.800;2023-03-19T06:16:06;100944.25;;;9.55;100.00
29549;BME280;16487;53.094;8.800;2023-03-19T06:18:41;100952.72;;;9.68;100.00
29549;BME280;16487;53.094;8.800;2023-03-19T06:21:11;100953.75;;;9.74;100.00
29549;BME280;16487;53.094;8.800;2023-03-19T06:23:38;100962.59;;;9.88;100.00
29549;BME280;16487;53.094;8.800;2023-03-19T06:26:07;100959.28;;;9.93;100.00
29549;BME280;16487;53.094;8.800;2023-03-19T06:28:42;100959.88;;;10.01;100.00
29549;BME280;16487;53.094;8.800;2023-03-19T06:31:09;100953.31;;;10.11;100.00
29549;BME280;16487;53.094;8.800;2023-03-19T06:33:53;100947.66;;;10.14;100.00
29549;BME280;16487;53.094;8.800;2023-03-19T06:36:23;100958.63;;;10.21;100.00
29549;BME280;16487;53.094;8.800;2023-03-19T06:38:50;100942.69;;;10.22;100.00
29549;BME280;16487;53.094;8.800;2023-03-19T06:41:17;100936.28;;;10.25;100.00
29549;BME280;16487;53.094;8.800;2023-03-19T06:43:47;100928.06;;;10.34;100.00
29549;BME280;16487;53.094;8.800;2023-03-19T06:46:14;100901.59;;;10.42;100.00
29549;BME280;16487;53.094;8.800;2023-03-19T06:48:41;100902.25;;;10.46;100.00
29549;BME280;16487;53.094;8.800;2023-03-19T06:51:10;100898.63;;;10.49;100.00
29549;BME280;16487;53.094;8.800;2023-03-19T06:53:38;100882.91;;;10.55;100.00
29549;BME280;16487;53.094;8.800;2023-03-19T06:56:05;100871.78;;;10.55;100.00
29549;BME280;16487;53.094;8.800;2023-03-19T06:58:32;100858.59;;;10.72;100.00
29549;BME280;16487;53.094;8.800;2023-03-19T07:01:00;100856.47;;;10.76;100.00
29549;BME280;16487;53.094;8.800;2023-03-19T07:03:27;100845.53;;;10.81;100.00
29549;BME280;16487;53.094;8.800;2023-03-19T07:05:55;100837.38;;;10.74;100.00
29549;BME280;16487;53.094;8.800;2023-03-19T07:08:23;100824.69;;;10.86;100.00
29549;BME280;16487;53.094;8.800;2023-03-19T07:10:51;100818.00;;;10.83;100.00
29549;BME280;16487;53.094;8.800;2023-03-19T07:13:18;100814.34;;;10.86;100.00
29549;BME280;16487;53.094;8.800;2023-03-19T07:15:46;100809.53;;;10.87;100.00
29549;BME280;16487;53.094;8.800;2023-03-19T07:18:13;100791.59;;;11.00;100.00
29549;BME280;16487;53.094;8.800;2023-03-19T07:20:40;100790.69;;;11.03;100.00
29549;BME280;16487;53.094;8.800;2023-03-19T07:23:07;100784.69;;;11.05;100.00
29549;BME280;16487;53.094;8.800;2023-03-19T07:25:36;100770.06;;;11.01;100.00
29549;BME280;16487;53.094;8.800;2023-03-19T07:28:03;100765.59;;;11.03;100.00
29549;BME280;16487;53.094;8.800;2023-03-19T07:30:31;100753.03;;;11.11;100.00
29549;BME280;16487;53.094;8.800;2023-03-19T07:32:58;100753.22;;;11.04;100.00
29549;BME280;16487;53.094;8.800;2023-03-19T07:35:26;100751.53;;;11.07;100.00
29549;BME280;16487;53.094;8.800;2023-03-19T07:37:53;100738.06;;;11.05;100.00
29549;BME280;16487;53.094;8.800;2023-03-19T07:40:21;100739.84;;;10.99;100.00
29549;BME280;16487;53.094;8.800;2023-03-19T07:42:49;100730.13;;;11.04;100.00
29549;BME280;16487;53.094;8.800;2023-03-19T07:45:17;100744.66;;;11.11;100.00
29549;BME280;16487;53.094;8.800;2023-03-19T07:47:45;100753.78;;;11.12;100.00
29549;BME280;16487;53.094;8.800;2023-03-19T07:50:15;100748.53;;;11.26;100.00
29549;BME280;16487;53.094;8.800;2023-03-19T07:52:44;100752.56;;;11.25;100.00
29549;BME280;16487;53.094;8.800;2023-03-19T07:55:15;100749.84;;;11.34;100.00
29549;BME280;16487;53.094;8.800;2023-03-19T07:57:42;100743.63;;;11.30;100.00
29549;BME280;16487;53.094;8.800;2023-03-19T08:00:12;100742.78;;;11.55;100.00
29549;BME280;16487;53.094;8.800;2023-03-19T08:02:39;100747.63;;;11.54;100.00
29549;BME280;16487;53.094;8.800;2023-03-19T08:05:08;100741.47;;;11.60;100.00
29549;BME280;16487;53.094;8.800;2023-03-19T08:07:36;100734.09;;;11.53;100.00
29549;BME280;16487;53.094;8.800;2023-03-19T08:10:04;100724.50;;;11.67;100.00
29549;BME280;16487;53.094;8.800;2023-03-19T08:12:32;100717.44;;;11.75;100.00
29549;BME280;16487;53.094;8.800;2023-03-19T08:14:59;100716.13;;;11.67;100.00
29549;BME280;16487;53.094;8.800;2023-03-19T08:17:27;100702.31;;;11.85;100.00
29549;BME280;16487;53.094;8.800;2023-03-19T08:19:55;100694.00;;;11.94;100.00
29549;BME280;16487;53.094;8.800;2023-03-19T08:22:22;100682.97;;;12.12;100.00
29549;BME280;16487;53.094;8.800;2023-03-19T08:24:49;100660.25;;;12.31;100.00
29549;BME280;16487;53.094;8.800;2023-03-19T08:27:16;100651.25;;;12.58;100.00
29549;BME280;16487;53.094;8.800;2023-03-19T08:29:44;100636.03;;;12.59;100.00
29549;BME280;16487;53.094;8.800;2023-03-19T08:32:11;100608.50;;;12.88;100.00
29549;BME280;16487;53.094;8.800;2023-03-19T08:34:40;100587.94;;;12.73;100.00
29549;BME280;16487;53.094;8.800;2023-03-19T08:37:07;100567.75;;;12.87;100.00
29549;BME280;16487;53.094;8.800;2023-03-19T08:39:34;100534.84;;;12.91;100.00
29549;BME280;16487;53.094;8.800;2023-03-19T08:42:02;100520.97;;;12.79;100.00
29549;BME280;16487;53.094;8.800;2023-03-19T08:44:29;100520.50;;;12.71;100.00
29549;BME280;16487;53.094;8.800;2023-03-19T08:46:56;100511.53;;;12.94;100.00
29549;BME280;16487;53.094;8.800;2023-03-19T08:49:23;100497.06;;;12.96;100.00
29549;BME280;16487;53.094;8.800;2023-03-19T08:51:52;100491.38;;;13.17;100.00
29549;BME280;16487;53.094;8.800;2023-03-19T08:54:19;100476.28;;;13.06;100.00
29549;BME280;16487;53.094;8.800;2023-03-19T08:56:49;100467.25;;;13.20;100.00
29549;BME280;16487;53.094;8.800;2023-03-19T08:59:16;100461.81;;;12.98;100.00
29549;BME280;16487;53.094;8.800;2023-03-19T09:01:43;100463.06;;;13.06;100.00
29549;BME280;16487;53.094;8.800;2023-03-19T09:04:11;100458.72;;;13.05;100.00
29549;BME280;16487;53.094;8.800;2023-03-19T09:06:38;100458.53;;;13.18;100.00
29549;BME280;16487;53.094;8.800;2023-03-19T09:09:07;100445.97;;;13.13;100.00
29549;BME280;16487;53.094;8.800;2023-03-19T09:11:34;100440.59;;;13.60;100.00
29549;BME280;16487;53.094;8.800;2023-03-19T09:14:02;100426.91;;;13.62;100.00
29549;BME280;16487;53.094;8.800;2023-03-19T09:16:29;100414.44;;;13.96;100.00
29549;BME280;16487;53.094;8.800;2023-03-19T09:18:57;100402.06;;;14.12;100.00
29549;BME280;16487;53.094;8.800;2023-03-19T09:21:25;100370.16;;;14.42;100.00
29549;BME280;16487;53.094;8.800;2023-03-19T09:23:53;100329.72;;;15.01;100.00
29549;BME280;16487;53.094;8.800;2023-03-19T09:26:21;100300.97;;;15.06;100.00
29549;BME280;16487;53.094;8.800;2023-03-19T09:28:49;100292.84;;;14.79;100.00
29549;BME280;16487;53.094;8.800;2023-03-19T09:31:16;100276.66;;;15.03;100.00
29549;BME280;16487;53.094;8.800;2023-03-19T09:33:44;100267.38;;;15.41;100.00
29549;BME280;16487;53.094;8.800;2023-03-19T09:36:11;100229.50;;;15.91;100.00
29549;BME280;16487;53.094;8.800;2023-03-19T09:38:38;100208.91;;;15.99;100.00
29549;BME280;16487;53.094;8.800;2023-03-19T09:41:08;100213.94;;;15.95;100.00
29549;BME280;16487;53.094;8.800;2023-03-19T09:46:37;100212.41;;;15.54;100.00
29549;BME280;16487;53.094;8.800;2023-03-19T09:49:15;100200.19;;;15.77;100.00
29549;BME280;16487;53.094;8.800;2023-03-19T09:51:48;100202.38;;;15.48;100.00
29549;BME280;16487;53.094;8.800;2023-03-19T09:54:29;100206.88;;;15.25;100.00
29549;BME280;16487;53.094;8.800;2023-03-19T09:56:57;100207.50;;;15.49;100.00
29549;BME280;16487;53.094;8.800;2023-03-19T09:59:27;100205.38;;;15.64;100.00
29549;BME280;16487;53.094;8.800;2023-03-19T10:02:01;100207.69;;;15.46;100.00
29549;BME280;16487;53.094;8.800;2023-03-19T10:04:39;100219.09;;;15.77;100.00
29549;BME280;16487;53.094;8.800;2023-03-19T10:07:17;100203.56;;;16.01;100.00
29549;BME280;16487;53.094;8.800;2023-03-19T10:09:57;100195.78;;;15.91;100.00
29549;BME280;16487;53.094;8.800;2023-03-19T10:12:38;100202.75;;;16.21;100.00
29549;BME280;16487;53.094;8.800;2023-03-19T10:15:20;100178.94;;;16.68;100.00
29549;BME280;16487;53.094;8.800;2023-03-19T10:18:06;100172.03;;;17.00;100.00
29549;BME280;16487;53.094;8.800;2023-03-19T10:20:55;100164.47;;;18.90;100.00
29549;BME280;16487;53.094;8.800;2023-03-19T10:23:32;100194.22;;;19.46;100.00
29549;BME280;16487;53.094;8.800;2023-03-19T10:26:02;100326.78;;;19.55;100.00
29549;BME280;16487;53.094;8.800;2023-03-19T10:28:30;100395.75;;;18.77;100.00
29549;BME280;16487;53.094;8.800;2023-03-19T10:31:10;100379.19;;;18.48;100.00
29549;BME280;16487;53.094;8.800;2023-03-19T10:33:42;100319.69;;;17.98;100.00
29549;BME280;16487;53.094;8.800;2023-03-19T10:36:11;100300.25;;;18.05;100.00
29549;BME280;16487;53.094;8.800;2023-03-19T10:38:44;100302.91;;;17.41;100.00
29549;BME280;16487;53.094;8.800;2023-03-19T10:41:26;100215.69;;;16.59;100.00
29549;BME280;16487;53.094;8.800;2023-03-19T10:43:58;100216.09;;;17.45;100.00
29549;BME280;16487;53.094;8.800;2023-03-19T10:46:36;100262.38;;;17.33;100.00
29549;BME280;16487;53.094;8.800;2023-03-19T10:49:03;100328.41;;;17.01;100.00
29549;BME280;16487;53.094;8.800;2023-03-19T10:51:30;100302.03;;;16.73;100.00
29549;BME280;16487;53.094;8.800;2023-03-19T10:53:59;100268.75;;;16.05;100.00
29549;BME280;16487;53.094;8.800;2023-03-19T10:56:28;100245.72;;;16.01;100.00
29549;BME280;16487;53.094;8.800;2023-03-19T10:59:00;100272.56;;;15.82;100.00
29549;BME280;16487;53.094;8.800;2023-03-19T11:01:33;100244.00;;;15.69;100.00
29549;BME280;16487;53.094;8.800;2023-03-19T11:04:02;100216.81;;;15.41;100.00
29549;BME280;16487;53.094;8.800;2023-03-19T11:06:37;100204.47;;;15.38;100.00
29549;BME280;16487;53.094;8.800;2023-03-19T11:09:13;100170.88;;;15.09;100.00
29549;BME280;16487;53.094;8.800;2023-03-19T11:11:42;100144.84;;;15.09;100.00
29549;BME280;16487;53.094;8.800;2023-03-19T11:14:14;100129.91;;;14.97;100.00
29549;BME280;16487;53.094;8.800;2023-03-19T11:16:54;100124.69;;;14.90;100.00
29549;BME280;16487;53.094;8.800;2023-03-19T11:19:23;100148.41;;;14.89;100.00
29549;BME280;16487;53.094;8.800;2023-03-19T11:22:00;100163.97;;;14.90;100.00
29549;BME280;16487;53.094;8.800;2023-03-19T11:24:31;100182.47;;;14.82;100.00
29549;BME280;16487;53.094;8.800;2023-03-19T11:26:59;100193.78;;;14.73;100.00
29549;BME280;16487;53.094;8.800;2023-03-19T11:29:27;100199.97;;;14.77;100.00
29549;BME280;16487;53.094;8.800;2023-03-19T11:32:02;100199.69;;;14.75;100.00
29549;BME280;16487;53.094;8.800;2023-03-19T11:34:51;100213.88;;;14.86;100.00
29549;BME280;16487;53.094;8.800;2023-03-19T11:37:25;100205.56;;;14.91;100.00
29549;BME280;16487;53.094;8.800;2023-03-19T11:40:04;100205.84;;;14.93;100.00
29549;BME280;16487;53.094;8.800;2023-03-19T11:42:46;100208.66;;;14.79;100.00
29549;BME280;16487;53.094;8.800;2023-03-19T11:45:24;100213.22;;;14.76;100.00
29549;BME280;16487;53.094;8.800;2023-03-19T11:48:09;100209.53;;;14.85;100.00
29549;BME280;16487;53.094;8.800;2023-03-19T11:50:44;100207.09;;;15.07;100.00
29549;BME280;16487;53.094;8.800;2023-03-19T11:53:22;100209.31;;;15.03;100.00
29549;BME280;16487;53.094;8.800;2023-03-19T11:55:56;100209.44;;;14.94;100.00
29549;BME280;16487;53.094;8.800;2023-03-19T11:58:48;100211.66;;;15.05;100.00
29549;BME280;16487;53.094;8.800;2023-03-19T12:01:30;100215.56;;;14.78;100.00
29549;BME280;16487;53.094;8.800;2023-03-19T12:04:15;100216.69;;;14.86;100.00
29549;BME280;16487;53.094;8.800;2023-03-19T12:06:55;100216.00;;;14.91;100.00
29549;BME280;16487;53.094;8.800;2023-03-19T12:09:30;100215.44;;;14.87;100.00
29549;BME280;16487;53.094;8.800;2023-03-19T12:12:12;100228.00;;;14.77;100.00
29549;BME280;16487;53.094;8.800;2023-03-19T12:14:51;100231.78;;;14.45;100.00
29549;BME280;16487;53.094;8.800;2023-03-19T12:17:36;100251.34;;;14.16;100.00
29549;BME280;16487;53.094;8.800;2023-03-19T12:20:21;100273.41;;;14.23;100.00
29549;BME280;16487;53.094;8.800;2023-03-19T12:22:59;100286.88;;;14.10;100.00
29549;BME280;16487;53.094;8.800;2023-03-19T12:25:41;100319.84;;;13.67;100.00
29549;BME280;16487;53.094;8.800;2023-03-19T12:28:17;100355.63;;;13.63;100.00
29549;BME280;16487;53.094;8.800;2023-03-19T12:31:01;100363.41;;;13.59;100.00
29549;BME280;16487;53.094;8.800;2023-03-19T12:33:42;100382.44;;;13.55;100.00
29549;BME280;16487;53.094;8.800;2023-03-19T12:36:17;100395.63;;;13.64;100.00
29549;BME280;16487;53.094;8.800;2023-03-19T12:38:48;100396.94;;;13.87;100.00
29549;BME280;16487;53.094;8.800;2023-03-19T12:41:19;100376.91;;;14.35;100.00
29549;BME280;16487;53.094;8.800;2023-03-19T12:43:54;100362.59;;;14.48;100.00
29549;BME280;16487;53.094;8.800;2023-03-19T12:46:26;100323.03;;;15.13;100.00
29549;BME280;16487;53.094;8.800;2023-03-19T12:48:58;100290.88;;;15.43;100.00
29549;BME280;16487;53.094;8.800;2023-03-19T12:51:34;100236.88;;;16.54;100.00
29549;BME280;16487;53.094;8.800;2023-03-19T12:54:05;100226.50;;;16.97;100.00
29549;BME280;16487;53.094;8.800;2023-03-19T12:56:38;100227.53;;;16.68;100.00
29549;BME280;16487;53.094;8.800;2023-03-19T12:59:12;100232.97;;;15.46;100.00
29549;BME280;16487;53.094;8.800;2023-03-19T13:01:45;100236.72;;;15.97;100.00
29549;BME280;16487;53.094;8.800;2023-03-19T13:04:17;100235.94;;;15.77;100.00
29549;BME280;16487;53.094;8.800;2023-03-19T13:06:52;100240.84;;;15.62;100.00